»·PEaware :: KLM691 KLAX-KSFO

KLM691 :: KLAX-KSFO

FLIGHT INFORMATION

Flight Status: Arrived
Operator:
KLM
More flights by this operator :: More flights under this callsign
Pilot: Thomas N. (7419)
Aircraft: BOEING 737-300
(B733)
More flights by this aircraft type
Origin: KLAX Los Angeles Intl
United States
Destination: KSFO San Francisco Intl
United States
More flights between these airports :: More routes between these airports
Route: +FIXIT3 RZS J501 BSR BSR2
File this flight plan on PilotEdge
Remarks: BSR2 Menlo transition to ILS
Altitude:
(Current/Filed)
34,000ft
Speed:
(Current/Filed)
440kts
Departed: 01-May-16 01:35 PM
Arrived: 01-May-16 02:34 PM
Distance/Time
Traveled:
293nm/0:59
Distance/Time
To Go:
Arrived

Flight Plot

Page will automatically refresh every two minutes.


Map Options




Map Legend


Flown Route
Filed Route
Departure Airport
Arrival Airport
Navaid (VOR, NDB)
Fix

Horizontal Profiles

Position Reports

Time Latitude Longitude Heading Altitude Ground
Speed
01-May-16 12:58 33.941829 -118.401501 265 132ft 0kts
01-May-16 12:59 33.941829 -118.401501 265 132ft 0kts
01-May-16 13:00 33.941829 -118.401501 265 132ft 0kts
01-May-16 13:01 33.941829 -118.401501 265 132ft 0kts
01-May-16 13:02 33.941829 -118.401501 265 132ft 0kts
01-May-16 13:03 33.941842 -118.401298 265 132ft 0kts
01-May-16 13:04 33.942103 -118.400812 187 132ft 0kts
01-May-16 13:05 33.942146 -118.400806 185 132ft 0kts
01-May-16 13:06 33.942146 -118.400806 185 132ft 0kts
01-May-16 13:07 33.942098 -118.400813 186 132ft 1kts
01-May-16 13:08 33.939798 -118.400580 172 132ft 12kts
01-May-16 13:09 33.938973 -118.398264 82 132ft 12kts
01-May-16 13:10 33.939370 -118.394409 82 132ft 12kts
01-May-16 13:11 33.939772 -118.390621 81 132ft 12kts
01-May-16 13:12 33.939773 -118.390615 81 132ft 12kts
01-May-16 13:17 33.941811 -118.401532 265 132ft 0kts
01-May-16 13:18 33.941811 -118.401532 265 132ft 0kts
01-May-16 13:19 33.941811 -118.401532 265 132ft 0kts
01-May-16 13:20 33.941811 -118.401532 265 132ft 0kts
01-May-16 13:21 33.941811 -118.401532 265 132ft 0kts
01-May-16 13:22 33.941811 -118.401532 265 132ft 0kts
01-May-16 13:23 33.941811 -118.401532 265 132ft 0kts
01-May-16 13:24 33.941811 -118.401532 265 132ft 0kts
01-May-16 13:25 33.941853 -118.401048 252 132ft 0kts
01-May-16 13:26 33.942053 -118.400834 192 132ft 0kts
01-May-16 13:27 33.941709 -118.400851 175 132ft 7kts
01-May-16 13:28 33.939366 -118.400515 168 132ft 9kts
01-May-16 13:29 33.939036 -118.397701 82 132ft 14kts
01-May-16 13:30 33.939625 -118.391985 82 132ft 18kts
01-May-16 13:31 33.940214 -118.386308 82 132ft 16kts
01-May-16 13:32 33.940737 -118.381236 82 132ft 14kts
01-May-16 13:33 33.940741 -118.380723 103 132ft 2kts
01-May-16 13:34 33.939274 -118.385781 263 132ft 97kts
01-May-16 13:35 33.933021 -118.437088 264 1524ft 178kts
01-May-16 13:36 33.927988 -118.498933 268 3771ft 210kts
01-May-16 13:37 33.924098 -118.573529 263 6038ft 231kts
01-May-16 13:38 33.918189 -118.658326 269 8430ft 270kts
01-May-16 13:39 33.917074 -118.750035 269 10535ft 280kts
01-May-16 13:40 33.915718 -118.844646 269 12042ft 286kts
01-May-16 13:41 33.956062 -118.922402 301 13546ft 293kts
01-May-16 13:42 34.006591 -118.999856 309 15046ft 299kts
01-May-16 13:43 34.058907 -119.078953 308 16891ft 307kts
01-May-16 13:44 34.109542 -119.155307 308 19239ft 319kts
01-May-16 13:45 34.165403 -119.240228 308 21744ft 330kts
01-May-16 13:46 34.223486 -119.328932 308 23035ft 359kts
01-May-16 13:47 34.291467 -119.433059 308 23045ft 427kts
01-May-16 13:48 34.357544 -119.534598 308 25277ft 361kts
01-May-16 13:49 34.418672 -119.628776 308 27734ft 352kts
01-May-16 13:50 34.478655 -119.721427 308 30205ft 331kts
01-May-16 13:51 34.536743 -119.801351 317 32006ft 316kts
01-May-16 13:52 34.605613 -119.876509 318 32021ft 356kts
01-May-16 13:53 34.672258 -119.949284 317 32018ft 389kts
01-May-16 13:54 34.751909 -120.036473 317 31954ft 385kts
01-May-16 13:55 34.826341 -120.117984 317 31960ft 385kts
01-May-16 13:56 34.905773 -120.204811 317 31960ft 384kts
01-May-16 13:57 34.984755 -120.291936 317 31963ft 384kts
01-May-16 13:58 35.058671 -120.373707 317 31963ft 384kts
01-May-16 13:59 35.137492 -120.461136 317 31967ft 383kts
01-May-16 14:00 35.215998 -120.548455 317 31972ft 382kts
01-May-16 14:01 35.294164 -120.635633 317 31972ft 382kts
01-May-16 14:02 35.372710 -120.723598 317 31971ft 382kts
01-May-16 14:03 35.451128 -120.811554 317 31959ft 384kts
01-May-16 14:04 35.530506 -120.899796 317 31946ft 387kts
01-May-16 14:05 35.608492 -120.987587 316 31943ft 377kts
01-May-16 14:06 35.683108 -121.071968 315 31097ft 349kts
01-May-16 14:07 35.753634 -121.151328 315 29304ft 348kts
01-May-16 14:08 35.825409 -121.232709 314 27524ft 357kts
01-May-16 14:09 35.899041 -121.316608 315 25736ft 365kts
01-May-16 14:10 35.973945 -121.402194 318 24115ft 369kts
01-May-16 14:11 36.048906 -121.488082 319 21788ft 363kts
01-May-16 14:12 36.122919 -121.573111 319 20285ft 363kts
01-May-16 14:13 36.197441 -121.655561 326 19904ft 358kts
01-May-16 14:14 36.276986 -121.723544 327 19922ft 349kts
01-May-16 14:15 36.356684 -121.792602 326 19926ft 349kts
01-May-16 14:16 36.435722 -121.861330 326 19926ft 349kts
01-May-16 14:17 36.525923 -121.899659 348 19928ft 346kts
01-May-16 14:18 36.617968 -121.926048 347 19927ft 346kts
01-May-16 14:19 36.695761 -121.948820 347 19279ft 340kts
01-May-16 14:20 36.786531 -121.975171 348 17150ft 332kts
01-May-16 14:21 36.875224 -121.998839 348 15061ft 326kts
01-May-16 14:22 36.963005 -122.021874 348 12969ft 322kts
01-May-16 14:23 37.050428 -122.044847 348 10871ft 321kts
01-May-16 14:24 37.133376 -122.066653 348 9992ft 285kts
01-May-16 14:25 37.212384 -122.087877 348 10011ft 294kts
01-May-16 14:26 37.290444 -122.108477 348 10024ft 265kts
01-May-16 14:27 37.363441 -122.127510 348 7859ft 282kts
01-May-16 14:28 37.441915 -122.148278 348 5043ft 293kts
01-May-16 14:29 37.516130 -122.169471 339 3847ft 245kts
01-May-16 14:30 37.556333 -122.226759 293 3139ft 214kts
01-May-16 14:31 37.584216 -122.294332 301 1148ft 200kts
01-May-16 14:32 37.606078 -122.345469 300 267ft 132kts
01-May-16 14:33 37.617064 -122.371192 297 20ft 9kts
01-May-16 14:34 37.616594 -122.372165 207 20ft 0kts
01-May-16 14:35 37.616276 -122.372392 211 20ft 5kts
01-May-16 14:36 37.617519 -122.376231 290 20ft 17kts
01-May-16 14:37 37.619469 -122.381661 299 20ft 16kts
01-May-16 14:38 37.618255 -122.381921 135 20ft 0kts
01-May-16 14:39 37.618255 -122.381921 135 20ft 0kts
01-May-16 14:40 37.618255 -122.381921 135 20ft 0kts
01-May-16 14:41 37.618255 -122.381921 135 20ft 0kts
01-May-16 14:42 37.618255 -122.381921 135 20ft 0kts
01-May-16 14:43 37.618255 -122.381921 135 20ft 0kts
01-May-16 14:44 37.618255 -122.381921 135 20ft 0kts
01-May-16 14:45 37.618255 -122.381921 135 20ft 0kts
01-May-16 14:46 37.618255 -122.381921 135 20ft 0kts
01-May-16 14:47 37.618255 -122.381921 135 20ft 0kts
01-May-16 14:48 37.618255 -122.381921 135 20ft 0kts

Navigation Log

Ident Type
Flight plan parsing failed, navigation log unavailable